Terminal Aerodrome Forecast
Issued by NWS Pocatello, ID

Home | Current Version | Previous Version | Text Only | Print | Product List | Glossary On
Versions: 1 2 3 4 5 6 7 8 9 10 11 12 13 14
000
FTUS45 KPIH 180500
TAFPIH
TAF
KPIH 180520Z 1806/1906 19007KT P6SM VCSH SCT080 BKN150
     FM180800 22010G18KT P6SM -SHRA SCT060 BKN120
     FM182000 22012G20KT P6SM VCTS SCT060CB BKN120=

USA.gov is the U.S. government's official web portal to all federal, state and local government web resources and services.